Weather observations for the past three days for
Iowa City Municipal Airport
Metric (Imperial)
Date Time (cdt) Wind (kph) Vis. (km) Weather Sky Cond. Temperature (ºC) Relative Humidity Wind Chill (°C) Heat Index (°C) Pressure Precipitation (cm)
Air Dwpt 6 hour altimeter (cm) sea level (mb) 1 hr 3 hr 6 hr
Max. Min.
31 11:52 SW 17 16.09 Fair CLR 30.6 20.6 55% 33 76 1012.3
31 10:52 SW 20 16.09 Fair CLR 29.4 20.6 59% 32 75.97 1012.3
31 09:52 SW 17 G 33 16.09 Fair CLR 28.3 20 61% 30 75.95 1011.9
31 08:52 SW 15 16.09 Fair CLR 26.7 19.4 64% 28 75.95 1011.8
31 07:52 S 13 16.09 Fair CLR 25 19.4 71% 26 75.92 1011.7
31 06:52 S 13 16.09 A Few Clouds FEW110 23.9 19.4 25.6 23.3 76% 24 75.9 1011.3
31 05:52 S 13 16.09 Mostly Cloudy BKN100 23.3 19.4 79% 75.9 1011.3
31 04:52 S 15 16.09 Fair CLR 23.9 20 79% 24 75.9 1011.3
31 03:52 S 15 16.09 Fair CLR 23.9 20 79% 24 75.92 1011.4
31 02:52 S 13 16.09 Fair CLR 23.9 20 79% 24 75.9 1011.3
31 01:52 S 13 16.09 Fair CLR 24.4 20 77% 25 75.92 1011.6
31 00:52 S 15 16.09 Fair CLR 25 20.6 27.2 24.4 77% 26 75.95 1011.8
30 23:52 S 11 16.09 Fair CLR 25 21.7 82% 26 75.92 1011.7
30 22:52 SE 13 16.09 Fair CLR 25.6 22.2 82% 27 75.95 1012.1
30 21:52 SE 9 16.09 Fair CLR 25 23.3 90% 26 75.97 1012.2
30 20:52 SE 11 16.09 Fair CLR 25 23.3 90% 26 75.97 1012.1
30 19:52 SE 9 16.09 Fair CLR 25.6 23.3 87% 27 75.92 1011.7
30 18:52 SE 13 16.09 Fair CLR 27.2 23.3 27.8 23.9 79% 30 75.92 1011.7 0.05
30 17:52 SE 15 16.09 Fair CLR 27.2 22.2 74% 30 75.95 1012.1
30 16:52 SE 11 16.09 Fair CLR 27.2 21.7 72% 29 75.97 1012.1
30 15:52 SE 15 16.09 A Few Clouds FEW120 25.6 21.7 79% 27 76 1012.5 0.05
30 14:52 E 7 16.09 Mostly Cloudy BKN110 24.4 21.7 85% 25 76.07 1013.6 0.05
30 13:52 SE 13 16.09 Mostly Cloudy BKN110 25 21.1 79% 26 76.07 1013.6
30 12:52 E 11 16.09 Partly Cloudy SCT100 25.6 21.1 26.7 22.2 76% 27 76.1 1013.9 0.03 0.03
30 11:52 SE 9 16.09 Mostly Cloudy BKN110 25 19.4 71% 26 76.05 1013.4
30 10:52 S 17 G 31 16.09 Overcast OVC110 26.1 18.3 62% 27 76.02 1012.9
30 09:52 S 22 G 44 16.09 Mostly Cloudy BKN110 25.6 17.8 62% 27 75.95 1012.1
30 08:52 S 19 16.09 Partly Cloudy SCT110 24.4 17.8 67% 25 75.92 1011.7
30 07:52 S 13 16.09 A Few Clouds FEW110 22.8 17.2 71% 75.95 1011.9
30 06:52 S 11 16.09 Partly Cloudy SCT100 22.8 16.7 23.9 22.2 69% 75.95 1011.8
30 05:52 S 15 16.09 Overcast OVC110 22.8 16.7 69% 75.92 1011.7
30 04:52 S 15 16.09 Overcast OVC110 23.3 16.7 67% 75.95 1012.0
30 03:52 S 13 16.09 Overcast OVC110 22.8 17.2 71% 75.95 1012.1
30 02:52 S 17 16.09 Overcast OVC110 23.3 17.2 69% 75.95 1012.0
30 01:52 S 19 16.09 Overcast OVC110 23.9 17.2 66% 25 75.97 1012.3
30 00:52 S 17 16.09 Mostly Cloudy BKN110 23.9 17.8 26.1 23.3 69% 25 76 1012.7
29 23:52 S 13 16.09 Fair CLR 23.3 18.9 76% 76.02 1012.9
29 22:52 S 15 16.09 A Few Clouds FEW090 24.4 18.9 72% 25 76.02 1013.1
29 21:52 S 15 16.09 Fair CLR 24.4 19.4 74% 25 76.02 1013.1
29 20:52 S 15 16.09 Fair CLR 25 19.4 71% 26 76 1012.8
29 19:52 S 22 16.09 Fair CLR 25 19.4 71% 26 75.95 1012.0
29 18:52 S 22 16.09 A Few Clouds FEW080 26.1 20 27.8 22.2 69% 27 75.95 1012.1
29 17:52 S 22 G 39 16.09 Fair CLR 27.2 18.9 61% 28 76 1012.6
29 16:52 S 22 G 35 16.09 Fair CLR 26.7 20.6 69% 28 76.02 1013.0
29 15:52 S 24 16.09 A Few Clouds FEW110 23.9 20 79% 24 76.1 1014.2
29 14:52 SE 22 G 33 16.09 Light Rain FEW037 SCT046 SCT060 22.8 19.4 81% 76.17 1015.3
29 13:52 S 20 16.09 Mostly Cloudy FEW060 SCT085 BKN110 22.8 19.4 81% 76.3 1016.8
29 12:52 SE 9 16.09 Mostly Cloudy FEW070 BKN100 BKN120 22.2 19.4 22.2 17.8 84% 76.4 1018.2
29 11:52 SE 9 16.09 A Few Clouds FEW120 21.7 18.3 81% 76.43 1018.4
29 10:52 SE 7 16.09 Partly Cloudy FEW042 SCT049 21.1 17.8 82% 76.45 1019.0
29 09:52 E 7 16.09 Fair CLR 20.6 17.2 81% 76.48 1019.3
29 08:52 SE 6 16.09 Partly Cloudy SCT070 19.4 16.7 84% 76.48 1019.3
29 07:52 SE 7 16.09 Fair CLR 18.3 16.7 90% 76.45 1018.9
29 06:52 Calm 16.09 Fair CLR 17.8 15.6 18.9 16.7 87% 76.43 1018.6
29 05:52 Calm 16.09 Fair CLR 17.8 16.1 90% 76.43 1018.6
29 04:52 Calm 16.09 Fair CLR 17.2 16.1 93% 76.4 1018.3
29 03:52 Calm 14.48 Fair CLR 17.8 16.7 93% 76.43 1018.6
29 02:52 Calm 16.09 Fair CLR 18.3 16.7 90% 76.43 1018.6
29 01:52 Calm 16.09 Fair CLR 18.3 16.7 90% 76.45 1018.8
29 00:52 Calm 16.09 Fair CLR 18.9 16.7 26.1 18.9 87% 76.45 1018.9
28 23:52 Calm 14.48 Fair CLR 19.4 16.7 84% 76.48 1019.0
28 22:52 Calm 12.87 Fair CLR 18.9 17.2 90% 76.45 1018.9
28 21:52 Calm 16.09 Fair CLR 19.4 16.7 84% 76.45 1018.9
28 20:52 Calm 16.09 Fair CLR 22.2 17.8 76% 76.45 1018.9
28 19:52 S 6 16.09 Fair CLR 23.3 17.8 71% 76.43 1018.6
28 18:52 SW 7 16.09 Fair CLR 26.1 17.2 28.9 26.1 58% 27 76.43 1018.6
28 17:52 SW 7 16.09 Fair CLR 27.2 16.1 51% 28 76.45 1019.0
28 16:52 S 7 16.09 Fair CLR 28.3 15.6 46% 28 76.45 1019.0
28 15:52 SW 6 16.09 Fair CLR 28.3 15.6 46% 28 76.48 1019.3
28 14:52 S 11 16.09 A Few Clouds FEW055 28.9 15 43% 29 76.5 1019.5
28 13:52 S 11 16.09 Mostly Cloudy BKN050 28.3 15.6 46% 28 76.56 1020.3
Date Time (cdt) Wind (kph) Vis. (km) Weather Sky Cond. Air Dwpt Max. Min. Relative Humidity Wind Chill (°C) Heat Index (°C) altimeter (cm) sea level (mb) 1 hr 3 hr 6 hr
6 hour
Temperature (ºC) Pressure Precipitation (cm)